createdAt,value
2018-03-03T00:01:00.076Z,67.43
2018-03-03T00:03:28.271Z,68.00
2018-03-03T00:05:57.272Z,67.60
2018-03-03T00:08:26.849Z,68.57
2018-03-03T00:10:55.305Z,67.30
2018-03-03T00:13:23.598Z,59.17
2018-03-03T00:15:51.824Z,66.23
2018-03-03T00:18:21.912Z,64.13
2018-03-03T00:20:50.426Z,70.00
2018-03-03T00:23:19.520Z,66.83
2018-03-03T00:25:48.210Z,55.83
2018-03-03T00:28:16.447Z,68.10
2018-03-03T00:30:45.458Z,65.73
2018-03-03T00:33:13.683Z,70.80
2018-03-03T00:35:41.998Z,64.37
2018-03-03T00:38:10.272Z,70.37
2018-03-03T00:40:38.519Z,68.63
2018-03-03T00:43:06.755Z,69.77
2018-03-03T00:45:34.960Z,62.03
2018-03-03T00:48:03.240Z,65.10
2018-03-03T00:50:31.463Z,65.53
2018-03-03T00:53:00.533Z,74.00
2018-03-03T00:55:28.748Z,60.10
2018-03-03T00:57:57.750Z,64.67
2018-03-03T01:00:26.134Z,66.43
2018-03-03T01:02:54.367Z,56.67
2018-03-03T01:05:22.732Z,63.30
2018-03-03T01:07:50.959Z,63.73
2018-03-03T01:10:19.989Z,64.27
2018-03-03T01:12:48.261Z,67.00
2018-03-03T01:15:16.526Z,62.73
2018-03-03T01:17:44.724Z,68.60
2018-03-03T01:20:13.040Z,65.27
2018-03-03T01:22:42.076Z,68.57
2018-03-03T01:25:10.380Z,64.33
2018-03-03T01:27:38.706Z,66.10
2018-03-03T01:30:06.904Z,65.17
2018-03-03T01:32:35.178Z,70.27
2018-03-03T01:35:03.420Z,71.37
2018-03-03T01:37:32.432Z,69.73
2018-03-03T01:40:00.637Z,65.50
2018-03-03T01:42:28.913Z,68.77
2018-03-03T01:44:57.233Z,72.43
2018-03-03T01:47:26.256Z,76.67
2018-03-03T01:49:54.497Z,69.17
2018-03-03T01:52:23.536Z,70.53
2018-03-03T01:54:52.036Z,70.03
2018-03-03T01:57:20.271Z,73.43
2018-03-03T01:59:48.472Z,67.60
2018-03-03T02:02:16.768Z,67.73
2018-03-03T02:04:46.212Z,65.17
2018-03-03T02:07:15.228Z,69.23
2018-03-03T02:09:43.884Z,71.20
2018-03-03T02:12:12.084Z,66.80
2018-03-03T02:14:40.477Z,67.00
2018-03-03T02:17:08.707Z,72.53
2018-03-03T02:19:36.945Z,68.73
2018-03-03T02:22:05.161Z,73.37
2018-03-03T02:24:34.347Z,75.27
2018-03-03T02:27:02.768Z,71.17
2018-03-03T02:29:31.014Z,68.37
2018-03-03T02:32:00.021Z,69.50
2018-03-03T02:34:29.021Z,72.33
2018-03-03T02:36:57.222Z,70.60
2018-03-03T02:39:25.462Z,74.03
2018-03-03T02:41:54.480Z,75.50
2018-03-03T02:44:22.784Z,69.70
2018-03-03T02:46:51.020Z,73.10
2018-03-03T02:49:19.272Z,69.13
2018-03-03T02:51:47.478Z,75.23
2018-03-03T02:54:15.710Z,70.00
2018-03-03T02:56:44.028Z,73.93
2018-03-03T02:59:12.222Z,73.47
2018-03-03T03:01:40.559Z,82.43
2018-03-03T03:04:08.858Z,77.13
2018-03-03T03:06:37.129Z,76.27
2018-03-03T03:09:06.100Z,78.10
2018-03-03T03:11:35.252Z,78.57
2018-03-03T03:14:03.484Z,85.90
2018-03-03T03:16:32.460Z,79.37
2018-03-03T03:19:00.777Z,79.13
2018-03-03T03:21:29.041Z,80.00
2018-03-03T03:23:57.253Z,89.27
2018-03-03T03:26:26.909Z,82.63
2018-03-03T03:28:55.889Z,84.80
2018-03-03T03:31:24.125Z,87.07
2018-03-03T03:33:53.752Z,87.63
2018-03-03T03:36:21.960Z,78.40
2018-03-03T03:38:51.003Z,85.97
2018-03-03T03:41:19.357Z,96.77
2018-03-03T03:43:47.588Z,86.47
2018-03-03T03:46:15.892Z,90.10
2018-03-03T03:48:44.892Z,95.80
2018-03-03T03:51:13.853Z,86.77
2018-03-03T03:53:42.169Z,91.07
2018-03-03T03:56:10.586Z,93.03
2018-03-03T03:58:38.791Z,93.43
2018-03-03T04:01:07.005Z,84.43
2018-03-03T04:03:35.224Z,85.97
2018-03-03T04:06:03.432Z,98.07
2018-03-03T04:08:32.401Z,89.33
2018-03-03T04:11:00.632Z,99.70
2018-03-03T04:13:28.856Z,88.77
2018-03-03T04:15:57.120Z,96.87
2018-03-03T04:18:25.390Z,89.13
2018-03-03T04:20:53.813Z,87.93
2018-03-03T04:23:22.018Z,86.00
2018-03-03T04:25:50.345Z,98.00
2018-03-03T04:28:21.232Z,92.43
2018-03-03T04:30:49.480Z,98.20
2018-03-03T04:33:17.777Z,95.63
2018-03-03T04:35:45.981Z,90.80
2018-03-03T04:38:14.204Z,94.77
2018-03-03T04:40:43.311Z,97.77
2018-03-03T04:43:12.299Z,89.20
2018-03-03T04:45:41.260Z,82.43
2018-03-03T04:48:09.542Z,91.53
2018-03-03T04:50:37.784Z,86.60
2018-03-03T04:53:06.065Z,84.17
2018-03-03T04:55:34.286Z,85.33
2018-03-03T04:58:03.276Z,90.70
2018-03-03T05:00:49.124Z,84.70
2018-03-03T05:03:34.049Z,91.10
2018-03-03T05:06:10.898Z,78.93
2018-03-03T05:08:39.979Z,98.07
2018-03-03T05:11:08.164Z,95.40
2018-03-03T05:13:47.223Z,88.87
2018-03-03T05:16:22.086Z,92.77
2018-03-03T05:18:55.921Z,86.47
2018-03-03T05:21:30.032Z,95.93
2018-03-03T05:24:03.888Z,96.90
2018-03-03T05:26:37.748Z,100.87
2018-03-03T05:29:12.539Z,100.87
2018-03-03T05:31:47.240Z,109.97
2018-03-03T05:34:21.226Z,105.43
2018-03-03T05:36:55.092Z,100.77
2018-03-03T05:39:40.212Z,85.87
2018-03-03T05:42:14.961Z,106.50
2018-03-03T05:44:48.844Z,89.83
2018-03-03T05:47:36.522Z,84.17
2018-03-03T05:50:21.519Z,95.47
2018-03-03T05:53:10.401Z,85.13
2018-03-03T05:55:57.477Z,94.07
2018-03-03T05:58:42.502Z,93.40
2018-03-03T06:01:26.437Z,96.40
2018-03-03T06:04:11.312Z,97.63
2018-03-03T06:06:55.368Z,90.87
2018-03-03T06:09:28.844Z,89.47
2018-03-03T06:11:57.305Z,88.50
2018-03-03T06:14:26.180Z,84.93
2018-03-03T06:16:54.663Z,88.47
2018-03-03T06:19:22.837Z,85.27
2018-03-03T06:21:51.165Z,87.13
2018-03-03T06:24:19.468Z,84.93
2018-03-03T06:26:47.839Z,83.40
2018-03-03T06:29:16.060Z,85.03
2018-03-03T06:31:44.340Z,81.43
2018-03-03T06:34:12.620Z,92.93
2018-03-03T06:36:40.835Z,86.70
2018-03-03T06:39:09.110Z,78.93
2018-03-03T06:41:37.332Z,90.37
2018-03-03T06:44:05.528Z,84.57
2018-03-03T06:46:33.804Z,79.40
2018-03-03T06:49:02.056Z,80.73
2018-03-03T06:51:30.283Z,77.60
2018-03-03T06:53:59.236Z,81.07
2018-03-03T06:56:27.528Z,86.63
2018-03-03T06:58:55.802Z,84.57
2018-03-03T07:01:24.028Z,88.93
2018-03-03T07:03:52.380Z,77.43
2018-03-03T07:06:21.385Z,76.57
2018-03-03T07:08:49.556Z,76.03
2018-03-03T07:11:17.898Z,82.77
2018-03-03T07:13:46.139Z,80.57
2018-03-03T07:16:14.340Z,83.50
2018-03-03T07:18:42.741Z,85.67
2018-03-03T07:21:11.768Z,75.20
2018-03-03T07:23:40.236Z,75.60
2018-03-03T07:26:08.501Z,82.87
2018-03-03T07:28:37.612Z,79.77
2018-03-03T07:31:05.867Z,77.07
2018-03-03T07:33:34.204Z,76.33
2018-03-03T07:36:02.431Z,80.90
2018-03-03T07:38:30.648Z,84.40
2018-03-03T07:40:59.002Z,76.73
2018-03-03T07:43:27.768Z,77.50
2018-03-03T07:45:57.076Z,74.07
2018-03-03T07:48:25.396Z,77.40
2018-03-03T07:50:53.620Z,81.27
2018-03-03T07:53:22.050Z,82.20
2018-03-03T07:55:50.455Z,79.47
2018-03-03T07:58:30.376Z,73.50
2018-03-03T08:00:58.624Z,74.23
2018-03-03T08:03:26.824Z,74.43
2018-03-03T08:05:55.160Z,85.90
2018-03-03T08:08:24.171Z,81.40
2018-03-03T08:10:52.383Z,78.93
2018-03-03T08:13:20.596Z,79.03
2018-03-03T08:15:49.653Z,85.87
2018-03-03T08:18:18.435Z,81.00
2018-03-03T08:20:46.748Z,82.33
2018-03-03T08:23:15.807Z,78.67
2018-03-03T08:25:44.045Z,84.43
2018-03-03T08:28:12.326Z,74.57
2018-03-03T08:30:40.564Z,76.40
2018-03-03T08:33:08.805Z,74.57
2018-03-03T08:35:37.064Z,76.80
2018-03-03T08:38:05.336Z,75.57
2018-03-03T08:40:33.548Z,80.13
2018-03-03T08:43:01.745Z,74.10
2018-03-03T08:45:30.794Z,75.77
2018-03-03T08:47:58.992Z,75.33
2018-03-03T08:50:27.200Z,84.30
2018-03-03T08:52:56.460Z,82.30
2018-03-03T08:55:24.704Z,79.97
2018-03-03T08:57:52.916Z,76.57
2018-03-03T09:00:21.188Z,74.83
2018-03-03T09:02:49.392Z,74.20
2018-03-03T09:05:18.622Z,72.83
2018-03-03T09:07:47.053Z,79.57
2018-03-03T09:10:16.080Z,73.53
2018-03-03T09:12:44.308Z,78.33
2018-03-03T09:15:12.576Z,75.87
2018-03-03T09:17:40.776Z,81.70
2018-03-03T09:20:08.976Z,78.17
2018-03-03T09:22:37.232Z,82.97
2018-03-03T09:25:05.440Z,79.17
2018-03-03T09:27:33.661Z,82.57
2018-03-03T09:30:01.958Z,86.10
2018-03-03T09:32:30.164Z,83.67
2018-03-03T09:34:59.229Z,79.27
2018-03-03T09:37:27.553Z,74.57
2018-03-03T09:39:55.887Z,76.23
2018-03-03T09:42:24.093Z,86.33
2018-03-03T09:44:52.424Z,84.07
2018-03-03T09:47:20.667Z,85.00
2018-03-03T09:49:48.921Z,79.40
2018-03-03T09:52:18.174Z,81.37
2018-03-03T09:54:46.562Z,77.60
2018-03-03T09:57:14.773Z,78.67
2018-03-03T09:59:43.149Z,78.43
2018-03-03T10:02:12.100Z,79.50
2018-03-03T10:04:40.300Z,82.27
2018-03-03T10:07:08.575Z,84.03
2018-03-03T10:09:36.769Z,76.07
2018-03-03T10:12:05.742Z,78.03
2018-03-03T10:14:33.988Z,82.53
2018-03-03T10:17:02.281Z,80.10
2018-03-03T10:19:30.485Z,84.97
2018-03-03T10:21:59.524Z,84.13
2018-03-03T10:24:28.497Z,79.83
2018-03-03T10:26:56.695Z,81.40
2018-03-03T10:29:24.977Z,87.93
2018-03-03T10:31:53.171Z,87.10
2018-03-03T10:34:22.251Z,84.23
2018-03-03T10:36:50.525Z,86.23
2018-03-03T10:39:18.727Z,84.07
2018-03-03T10:41:46.977Z,85.73
2018-03-03T10:44:15.244Z,84.33
2018-03-03T10:46:43.657Z,82.43
2018-03-03T10:49:11.856Z,84.60
2018-03-03T10:51:40.917Z,81.87
2018-03-03T10:54:09.090Z,78.20
2018-03-03T10:56:37.285Z,84.83
2018-03-03T10:59:06.394Z,81.80
2018-03-03T11:01:35.435Z,85.23
2018-03-03T11:04:03.700Z,84.73
2018-03-03T11:06:32.653Z,78.80
2018-03-03T11:09:01.609Z,82.17
2018-03-03T11:11:29.815Z,93.30
2018-03-03T11:13:58.093Z,79.67
2018-03-03T11:16:27.098Z,82.37
2018-03-03T11:18:56.056Z,76.47
2018-03-03T11:21:24.291Z,79.53
2018-03-03T11:23:52.513Z,78.87
2018-03-03T11:26:20.726Z,85.73
2018-03-03T11:28:49.035Z,78.83
2018-03-03T11:31:18.448Z,74.70
2018-03-03T11:33:46.673Z,77.63
2018-03-03T11:36:15.704Z,73.07
2018-03-03T11:38:43.908Z,83.67
2018-03-03T11:41:12.117Z,79.30
2018-03-03T11:43:41.107Z,73.67
2018-03-03T11:46:10.097Z,74.27
2018-03-03T11:48:39.075Z,78.43
2018-03-03T11:51:07.299Z,80.50
2018-03-03T11:53:35.494Z,75.80
2018-03-03T11:56:03.698Z,76.43
2018-03-03T11:58:31.975Z,79.63
2018-03-03T12:01:00.170Z,83.70
2018-03-03T12:03:29.142Z,73.30
2018-03-03T12:05:57.353Z,81.10
2018-03-03T12:08:25.558Z,75.50
2018-03-03T12:10:53.763Z,77.43
2018-03-03T12:13:21.984Z,76.10
2018-03-03T12:15:50.388Z,72.43
2018-03-03T12:18:18.616Z,79.07
2018-03-03T12:20:47.631Z,72.50
2018-03-03T12:23:15.829Z,76.43
2018-03-03T12:25:44.020Z,77.53
2018-03-03T12:28:12.280Z,78.87
2018-03-03T12:30:40.468Z,87.27
2018-03-03T12:33:08.856Z,77.03
2018-03-03T12:35:37.134Z,76.07
2018-03-03T12:38:05.299Z,73.67
2018-03-03T12:40:33.492Z,84.10
2018-03-03T12:43:03.743Z,83.40
2018-03-03T12:45:32.052Z,80.57
2018-03-03T12:48:00.312Z,74.93
2018-03-03T12:50:28.581Z,70.17
2018-03-03T12:52:56.832Z,78.33
2018-03-03T12:55:25.838Z,75.90
2018-03-03T12:57:54.137Z,70.90
2018-03-03T13:00:22.360Z,71.13
2018-03-03T13:02:50.600Z,70.93
2018-03-03T13:05:18.903Z,68.27
2018-03-03T13:07:47.115Z,68.60
2018-03-03T13:12:43.207Z,74.27
2018-03-03T13:15:11.397Z,66.83
2018-03-03T13:17:39.604Z,67.90
2018-03-03T13:20:09.274Z,73.27
2018-03-03T13:22:37.496Z,68.00
2018-03-03T13:25:06.488Z,69.13
2018-03-03T13:27:34.812Z,68.40
2018-03-03T13:30:02.980Z,71.03
2018-03-03T13:32:31.178Z,69.10
2018-03-03T13:34:59.456Z,64.53
2018-03-03T13:37:27.663Z,63.83
2018-03-03T13:39:56.694Z,68.50
2018-03-03T13:42:24.923Z,67.57
2018-03-03T13:44:53.925Z,69.20
2018-03-03T13:47:22.121Z,66.77
2018-03-03T13:49:50.365Z,68.67
2018-03-03T13:52:19.358Z,66.60
2018-03-03T13:54:48.313Z,65.43
2018-03-03T13:57:16.536Z,68.57
2018-03-03T13:59:45.128Z,65.50
2018-03-03T14:02:13.384Z,65.23
2018-03-03T14:04:42.380Z,64.97
2018-03-03T14:07:11.352Z,65.43
2018-03-03T14:09:39.552Z,61.87
2018-03-03T14:12:08.591Z,69.23
2018-03-03T14:14:36.896Z,76.20
2018-03-03T14:17:05.408Z,64.10
2018-03-03T14:19:34.432Z,69.50
2018-03-03T14:22:02.696Z,65.73
2018-03-03T14:24:30.948Z,67.63
2018-03-03T14:26:59.932Z,66.30
2018-03-03T14:29:29.417Z,67.17
2018-03-03T14:31:57.756Z,64.20
2018-03-03T14:34:26.317Z,69.73
2018-03-03T14:36:54.494Z,69.40
2018-03-03T14:39:22.691Z,62.50
2018-03-03T14:41:50.934Z,61.20
2018-03-03T14:44:19.952Z,59.40
2018-03-03T14:46:48.194Z,63.27
2018-03-03T14:49:17.176Z,64.87
2018-03-03T14:51:45.435Z,64.93
2018-03-03T14:54:13.657Z,68.90
2018-03-03T14:56:41.909Z,59.87
2018-03-03T14:59:10.911Z,67.27
2018-03-03T15:01:39.916Z,64.57
2018-03-03T15:04:08.138Z,64.37
2018-03-03T15:06:36.355Z,64.80
2018-03-03T15:09:05.348Z,62.83
2018-03-03T15:11:33.699Z,63.67
2018-03-03T15:14:01.898Z,59.17
2018-03-03T15:16:30.857Z,60.57
2018-03-03T15:18:59.167Z,59.83
2018-03-03T15:21:28.166Z,61.67
2018-03-03T15:23:57.148Z,56.10
2018-03-03T15:26:26.137Z,58.60
2018-03-03T15:28:55.173Z,56.63
2018-03-03T15:31:23.376Z,66.93
2018-03-03T15:33:51.602Z,59.23
2018-03-03T15:36:19.863Z,59.70
2018-03-03T15:38:48.100Z,61.90
2018-03-03T15:41:17.627Z,64.83
2018-03-03T15:43:45.827Z,67.63
2018-03-03T15:46:14.793Z,61.47
2018-03-03T15:48:43.028Z,60.17
2018-03-03T15:51:11.240Z,66.97
2018-03-03T15:53:39.452Z,67.00
2018-03-03T15:56:08.727Z,70.90
2018-03-03T15:58:36.971Z,64.90
2018-03-03T16:01:05.208Z,60.67
2018-03-03T16:03:34.241Z,64.13
2018-03-03T16:06:02.485Z,63.33
2018-03-03T16:08:31.449Z,66.20
2018-03-03T16:10:59.699Z,60.67
2018-03-03T16:13:27.930Z,64.13
2018-03-03T16:15:56.945Z,65.03
2018-03-03T16:18:25.173Z,64.93
2018-03-03T16:20:53.434Z,61.03
2018-03-03T16:23:21.637Z,62.80
2018-03-03T16:25:50.820Z,63.33
2018-03-03T16:28:19.028Z,68.33
2018-03-03T16:30:47.479Z,69.27
2018-03-03T16:33:15.734Z,62.27
2018-03-03T16:35:43.933Z,62.40
2018-03-03T16:38:12.937Z,69.43
2018-03-03T16:40:41.991Z,66.50
2018-03-03T16:43:10.200Z,66.80
2018-03-03T16:45:39.165Z,68.80
2018-03-03T16:48:08.053Z,69.63
2018-03-03T16:50:36.249Z,64.63
2018-03-03T16:53:04.452Z,68.10
2018-03-03T16:55:32.700Z,76.30
2018-03-03T16:58:00.894Z,72.63
2018-03-03T17:00:29.879Z,75.67
2018-03-03T17:02:58.860Z,70.20
2018-03-03T17:05:27.052Z,71.83
2018-03-03T17:07:56.387Z,82.57
2018-03-03T17:10:24.705Z,88.67
2018-03-03T17:12:52.953Z,77.03
2018-03-03T17:15:21.196Z,89.37
2018-03-03T17:17:49.443Z,77.97
2018-03-03T17:20:18.491Z,83.50
2018-03-03T17:22:47.440Z,81.30
2018-03-03T17:25:16.423Z,83.73
2018-03-03T17:27:45.392Z,77.80
2018-03-03T17:30:13.626Z,85.37
2018-03-03T17:32:42.171Z,92.00
2018-03-03T17:35:10.373Z,95.20
2018-03-03T17:37:38.625Z,80.07
2018-03-03T17:40:07.017Z,82.03
2018-03-03T17:42:36.002Z,88.00
2018-03-03T17:45:05.037Z,85.77
2018-03-03T17:47:33.201Z,85.87
2018-03-03T17:50:01.393Z,95.33
2018-03-03T17:52:29.608Z,83.33
2018-03-03T17:54:59.185Z,79.77
2018-03-03T17:57:27.412Z,83.53
2018-03-03T17:59:55.730Z,82.83
2018-03-03T18:02:24.117Z,86.87
2018-03-03T18:04:52.349Z,90.23
2018-03-03T18:07:21.320Z,84.60
2018-03-03T18:09:49.552Z,92.57
2018-03-03T18:12:17.849Z,83.30
2018-03-03T18:14:46.064Z,81.27
2018-03-03T18:17:15.108Z,96.93
2018-03-03T18:19:43.348Z,89.00
2018-03-03T18:22:11.565Z,82.93
2018-03-03T18:24:39.798Z,90.40
2018-03-03T18:27:08.030Z,87.47
2018-03-03T18:29:36.247Z,93.63
2018-03-03T18:32:04.496Z,96.30
2018-03-03T18:34:33.460Z,92.07
2018-03-03T18:37:01.657Z,95.53
2018-03-03T18:39:29.899Z,92.63
2018-03-03T18:41:59.488Z,88.23
2018-03-03T18:44:27.721Z,88.60
2018-03-03T18:46:56.039Z,84.70
2018-03-03T18:49:24.340Z,87.97
2018-03-03T18:51:52.533Z,89.90
2018-03-03T18:54:20.779Z,76.17
2018-03-03T18:56:48.969Z,90.93
2018-03-03T18:59:17.232Z,89.77
2018-03-03T19:01:45.504Z,85.27
2018-03-03T19:04:13.707Z,88.13
2018-03-03T19:06:41.926Z,92.47
2018-03-03T19:09:10.167Z,90.77
2018-03-03T19:11:38.405Z,86.10
2018-03-03T19:14:06.615Z,84.50
2018-03-03T19:16:34.863Z,89.30
2018-03-03T19:19:03.817Z,97.33
2018-03-03T19:21:32.026Z,86.33
2018-03-03T19:24:00.347Z,88.07
2018-03-03T19:26:28.555Z,91.77
2018-03-03T19:28:57.514Z,89.90
2018-03-03T19:31:26.521Z,99.90
2018-03-03T19:33:55.615Z,107.27
2018-03-03T19:36:25.270Z,83.20
2018-03-03T19:38:53.481Z,86.30
2018-03-03T19:41:21.701Z,90.40
2018-03-03T19:43:49.917Z,90.63
2018-03-03T19:46:18.201Z,87.97
2018-03-03T19:48:46.444Z,87.90
2018-03-03T19:51:14.724Z,84.27
2018-03-03T19:53:44.154Z,82.57
2018-03-03T19:56:12.389Z,84.87
2018-03-03T19:58:40.568Z,83.67
2018-03-03T20:01:08.818Z,81.10
2018-03-03T20:03:37.032Z,92.33
2018-03-03T20:06:05.247Z,85.17
2018-03-03T20:08:33.476Z,87.47
2018-03-03T20:11:01.717Z,83.57
2018-03-03T20:13:30.674Z,76.90
2018-03-03T20:15:58.955Z,81.90
2018-03-03T20:18:27.140Z,80.27
2018-03-03T20:20:55.342Z,78.93
2018-03-03T20:23:23.629Z,84.97
2018-03-03T20:25:52.619Z,76.23
2018-03-03T20:28:20.909Z,80.87
2018-03-03T20:30:49.164Z,80.73
2018-03-03T20:33:17.514Z,82.93
2018-03-03T20:35:46.617Z,73.97
2018-03-03T20:38:15.654Z,79.27
2018-03-03T20:40:43.881Z,74.47
2018-03-03T20:43:12.895Z,77.63
2018-03-03T20:45:41.120Z,79.17
2018-03-03T20:48:09.399Z,77.83
2018-03-03T20:50:37.581Z,75.67
2018-03-03T20:53:07.148Z,76.53
2018-03-03T20:55:35.392Z,79.73
2018-03-03T20:58:04.384Z,79.73
2018-03-03T21:00:33.425Z,74.00
2018-03-03T21:03:01.661Z,70.77
2018-03-03T21:05:30.013Z,82.67
2018-03-03T21:07:58.365Z,76.70
2018-03-03T21:10:26.691Z,77.80
2018-03-03T21:12:55.685Z,78.57
2018-03-03T21:15:24.798Z,76.97
2018-03-03T21:17:53.081Z,74.53
2018-03-03T21:20:21.290Z,77.20
2018-03-03T21:22:49.590Z,79.80
2018-03-03T21:25:17.840Z,84.73
2018-03-03T21:27:46.048Z,84.67
2018-03-03T21:30:15.049Z,79.67
2018-03-03T21:32:44.041Z,78.10
2018-03-03T21:35:13.041Z,75.63
2018-03-03T21:37:42.223Z,78.13
2018-03-03T21:40:11.420Z,78.80
2018-03-03T21:42:39.678Z,73.47
2018-03-03T21:45:08.031Z,74.97
2018-03-03T21:47:36.277Z,80.60
2018-03-03T21:50:04.507Z,78.50
2018-03-03T21:52:32.732Z,80.60
2018-03-03T21:55:00.954Z,73.43
2018-03-03T21:57:29.165Z,77.00
2018-03-03T21:59:58.193Z,78.37
2018-03-03T22:02:26.415Z,78.93
2018-03-03T22:04:54.646Z,80.80
2018-03-03T22:07:22.853Z,77.83
2018-03-03T22:09:51.142Z,82.00
2018-03-03T22:12:19.340Z,79.97
2018-03-03T22:14:47.608Z,78.30
2018-03-03T22:17:16.585Z,78.47
2018-03-03T22:19:44.912Z,78.23
2018-03-03T22:22:13.197Z,81.00
2018-03-03T22:24:41.410Z,74.33
2018-03-03T22:27:09.635Z,72.00
2018-03-03T22:29:37.976Z,74.10
2018-03-03T22:32:07.050Z,75.93
2018-03-03T22:34:35.330Z,78.63
2018-03-03T22:37:03.586Z,76.13
2018-03-03T22:39:31.840Z,75.50
2018-03-03T22:42:00.058Z,71.80
2018-03-03T22:44:30.713Z,69.53
2018-03-03T22:46:59.773Z,74.13
2018-03-03T22:49:28.078Z,70.90
2018-03-03T22:51:56.449Z,73.50
2018-03-03T22:54:24.925Z,73.90
2018-03-03T22:56:53.217Z,75.57
2018-03-03T22:59:22.216Z,79.43
2018-03-03T23:01:51.187Z,70.07
2018-03-03T23:04:19.412Z,77.90
2018-03-03T23:06:47.788Z,75.27
2018-03-03T23:09:16.020Z,72.00
2018-03-03T23:11:44.207Z,75.73
2018-03-03T23:14:12.913Z,68.50
2018-03-03T23:16:41.426Z,70.57
2018-03-03T23:19:09.645Z,75.60
2018-03-03T23:21:38.797Z,76.07
2018-03-03T23:24:07.092Z,71.83
2018-03-03T23:26:35.332Z,68.27
2018-03-03T23:29:05.317Z,72.10
2018-03-03T23:31:34.284Z,73.77
2018-03-03T23:34:02.526Z,68.97
2018-03-03T23:36:30.808Z,74.53
2018-03-03T23:38:59.009Z,70.67
2018-03-03T23:41:27.268Z,75.00
2018-03-03T23:43:55.527Z,72.67
2018-03-03T23:46:23.823Z,69.33
2018-03-03T23:48:52.191Z,70.17
2018-03-03T23:51:20.436Z,71.43
2018-03-03T23:53:48.698Z,68.67
2018-03-03T23:56:17.664Z,64.10
2018-03-03T23:58:45.910Z,64.47
